Time;durP1;ratioP1;P1;durP2;ratioP2;P2;SDS_P1;SDS_P2;PMS_P1;PMS_P2;Temp;Humidity;BMP_temperature;BMP_pressure;BME280_temperature;BME280_humidity;BME280_pressure;Samples;Min_cycle;Max_cycle;Signal;HPM_P1;HPM_P2
2022/08/31 00:05:28;;;;;;;;;;;20.40;92.50;;;;;;4859328;29;20381;-82
2022/08/31 00:07:55;;;;;;;0.20;0.20;;;20.30;92.70;;;;;;4862089;29;19928;-81
2022/08/31 00:10:26;;;;;;;0.10;0.10;;;20.30;92.80;;;;;;4861553;29;20065;-82
2022/08/31 00:13:03;;;;;;;0.20;0.20;;;20.30;92.60;;;;;;4857454;29;20462;-82
2022/08/31 00:15:33;;;;;;;0.20;0.20;;;20.20;92.60;;;;;;4866175;29;20490;-79
2022/08/31 00:18:00;;;;;;;;;;;20.20;92.60;;;;;;4865547;29;20095;-78
2022/08/31 00:20:27;;;;;;;;;;;20.30;92.50;;;;;;4858833;29;19967;-79
2022/08/31 00:23:07;;;;;;;;;;;20.30;92.30;;;;;;4860222;29;20030;-80
2022/08/31 00:25:35;;;;;;;;;;;20.30;92.50;;;;;;4859440;29;19988;-82
2022/08/31 00:28:03;;;;;;;0.20;0.20;;;20.30;91.90;;;;;;4852411;29;19956;-81
2022/08/31 00:30:31;;;;;;;0.10;0.10;;;20.30;90.30;;;;;;4862150;29;20493;-78
2022/08/31 00:32:58;;;;;;;0.10;0.10;;;20.40;89.90;;;;;;4864167;29;20507;-78
2022/08/31 00:35:27;;;;;;;0.10;0.10;;;20.50;86.20;;;;;;4855425;29;20441;-81
2022/08/31 00:37:55;;;;;;;0.10;0.10;;;20.60;83.70;;;;;;4872653;29;20493;-79
2022/08/31 00:40:22;;;;;;;0.10;0.10;;;20.70;82.90;;;;;;4862741;29;20422;-79
2022/08/31 00:42:50;;;;;;;0.10;0.10;;;20.80;85.20;;;;;;4861775;29;20430;-79
2022/08/31 00:45:17;;;;;;;0.10;0.10;;;20.80;86.50;;;;;;4859600;29;20894;-78
2022/08/31 00:47:44;;;;;;;0.10;0.10;;;20.70;87.90;;;;;;4861037;29;20433;-82
2022/08/31 00:50:14;;;;;;;0.10;0.10;;;20.70;88.90;;;;;;4852529;29;20490;-81
2022/08/31 00:52:47;;;;;;;0.10;0.10;;;20.60;89.10;;;;;;4863158;29;20954;-83
2022/08/31 00:55:19;;;;;;;0.10;0.10;;;20.60;89.50;;;;;;4847760;29;20491;-80
2022/08/31 00:57:47;;;;;;;;;;;20.50;90.00;;;;;;4862775;29;20093;-80
2022/08/31 01:00:16;;;;;;;;;;;20.40;90.10;;;;;;4864237;29;20354;-80
2022/08/31 01:02:44;;;;;;;0.20;0.20;;;20.20;90.40;;;;;;4857651;29;20342;-78
2022/08/31 01:05:12;;;;;;;0.10;0.10;;;20.10;91.00;;;;;;4847159;29;20429;-80
2022/08/31 01:07:40;;;;;;;0.10;0.10;;;20.10;90.80;;;;;;4856272;29;20433;-78
2022/08/31 01:10:08;;;;;;;0.10;0.10;;;20.00;91.30;;;;;;4857133;29;20452;-78
2022/08/31 01:12:36;;;;;;;0.10;0.10;;;20.00;91.10;;;;;;4855500;29;20489;-82
2022/08/31 01:15:07;;;;;;;0.10;0.10;;;20.10;91.00;;;;;;4863042;29;20425;-82
2022/08/31 01:17:36;;;;;;;0.10;0.10;;;20.10;91.00;;;;;;4846683;29;20456;-80
2022/08/31 01:20:31;;;;;;;0.10;0.10;;;20.00;91.30;;;;;;4863798;29;20439;-81
2022/08/31 01:23:33;;;;;;;0.10;0.10;;;20.00;91.30;;;;;;4864408;29;20836;-79
2022/08/31 01:26:01;;;;;;;0.10;0.10;;;20.00;91.20;;;;;;4807904;29;20405;-81
2022/08/31 01:28:28;;;;;;;0.60;0.10;;;20.00;91.30;;;;;;4864168;29;20481;-80
2022/08/31 01:31:05;;;;;;;0.10;0.10;;;19.90;91.60;;;;;;4851308;29;20430;-79
2022/08/31 01:33:34;;;;;;;0.13;0.13;;;19.90;91.60;;;;;;4852590;29;20422;-79
2022/08/31 01:36:02;;;;;;;0.17;0.17;;;19.90;91.40;;;;;;4863938;29;20812;-79
2022/08/31 01:38:29;;;;;;;0.10;0.10;;;19.80;92.20;;;;;;4849774;29;20421;-79
2022/08/31 01:41:00;;;;;;;0.10;0.10;;;19.70;92.70;;;;;;4872247;29;20418;-82
2022/08/31 01:43:29;;;;;;;0.13;0.13;;;19.70;92.80;;;;;;4853480;29;20422;-79
2022/08/31 01:45:56;;;;;;;0.20;0.20;;;19.70;93.00;;;;;;4852715;29;20428;-81
2022/08/31 01:48:24;;;;;;;0.10;0.10;;;19.60;93.10;;;;;;4861471;29;20426;-78
2022/08/31 01:50:51;;;;;;;0.10;0.10;;;19.60;93.00;;;;;;4867781;29;20429;-79
2022/08/31 01:53:18;;;;;;;0.20;0.20;;;19.70;92.50;;;;;;4846976;29;20942;-82
2022/08/31 01:55:45;;;;;;;0.10;0.10;;;19.60;92.40;;;;;;4869159;29;20428;-81
2022/08/31 01:58:13;;;;;;;0.10;0.10;;;19.60;92.50;;;;;;4854094;29;20479;-79
2022/08/31 02:01:29;;;;;;;0.10;0.10;;;19.60;92.30;;;;;;4849219;29;20485;-79
2022/08/31 02:04:04;;;;;;;0.10;0.10;;;19.60;92.10;;;;;;4860639;29;20422;-78
2022/08/31 02:06:32;;;;;;;0.10;0.10;;;19.50;92.30;;;;;;4845237;29;20430;-79
2022/08/31 02:09:00;;;;;;;0.10;0.10;;;19.40;92.70;;;;;;4861521;29;20445;-79
2022/08/31 02:11:27;;;;;;;0.10;0.10;;;19.40;92.50;;;;;;4848044;29;20429;-80
2022/08/31 02:13:53;;;;;;;;;;;19.50;92.30;;;;;;4860186;29;20061;-80
2022/08/31 02:16:20;;;;;;;;;;;19.40;92.00;;;;;;4857542;29;20389;-79
2022/08/31 02:18:47;;;;;;;;;;;19.40;92.10;;;;;;4858974;29;19997;-78
2022/08/31 02:21:14;;;;;;;0.17;0.17;;;19.30;92.20;;;;;;4871916;29;20055;-80
2022/08/31 02:23:41;;;;;;;;;;;19.30;91.90;;;;;;4867316;29;20571;-79
2022/08/31 02:26:08;;;;;;;;;;;19.20;91.80;;;;;;4858289;29;19924;-80
2022/08/31 02:28:35;;;;;;;;;;;19.10;91.70;;;;;;4854730;29;20488;-80
2022/08/31 02:31:02;;;;;;;;;;;19.20;91.70;;;;;;4859007;29;19924;-78
2022/08/31 02:33:29;;;;;;;;;;;19.10;91.70;;;;;;4849433;29;19976;-78
2022/08/31 02:35:57;;;;;;;;;;;19.10;91.70;;;;;;4865049;29;19931;-82
2022/08/31 02:38:24;;;;;;;;;;;19.10;91.70;;;;;;4861387;29;20389;-78
2022/08/31 02:40:52;;;;;;;;;;;19.00;91.90;;;;;;4869326;29;20370;-79
2022/08/31 02:43:19;;;;;;;;;;;19.00;92.00;;;;;;4863125;29;19950;-78
2022/08/31 02:45:50;;;;;;;;;;;18.90;92.00;;;;;;4856934;29;19932;-81
2022/08/31 02:48:20;;;;;;;;;;;18.90;92.00;;;;;;4856964;29;19931;-79
2022/08/31 02:50:47;;;;;;;;;;;18.90;91.80;;;;;;4861443;29;20377;-79
2022/08/31 02:53:15;;;;;;;;;;;18.80;91.70;;;;;;4865292;29;19953;-78
2022/08/31 02:55:42;;;;;;;;;;;18.80;91.70;;;;;;4873462;29;19976;-79
2022/08/31 02:58:09;;;;;;;;;;;18.80;91.70;;;;;;4853855;29;19989;-78
2022/08/31 03:00:37;;;;;;;;;;;18.80;91.80;;;;;;4851874;29;20278;-82
2022/08/31 03:03:03;;;;;;;;;;;18.60;92.40;;;;;;4861161;29;19948;-78
2022/08/31 03:05:30;;;;;;;;;;;18.60;92.60;;;;;;4857386;29;19929;-79
2022/08/31 03:07:57;;;;;;;;;;;18.60;92.70;;;;;;4853925;29;19976;-79
2022/08/31 03:10:25;;;;;;;;;;;18.50;92.60;;;;;;4856671;29;20462;-80
2022/08/31 03:12:52;;;;;;;;;;;18.50;93.20;;;;;;4860935;29;19932;-82
2022/08/31 03:15:20;;;;;;;;;;;18.40;93.00;;;;;;4868846;29;19976;-78
2022/08/31 03:17:46;;;;;;;;;;;18.40;92.80;;;;;;4859377;29;19924;-81
2022/08/31 03:20:15;;;;;;;;;;;18.30;92.90;;;;;;4867121;29;19924;-78
2022/08/31 03:22:41;;;;;;;;;;;18.30;92.80;;;;;;4852055;29;19963;-78
2022/08/31 03:25:11;;;;;;;;;;;18.20;92.90;;;;;;4857010;29;19924;-80
2022/08/31 03:27:38;;;;;;;;;;;18.10;93.20;;;;;;4858572;29;19951;-79
2022/08/31 03:30:06;;;;;;;;;;;18.10;93.10;;;;;;4853598;29;19959;-78
2022/08/31 03:32:33;;;;;;;;;;;18.10;93.20;;;;;;4865906;29;19928;-81
2022/08/31 03:35:00;;;;;;;;;;;18.10;94.60;;;;;;4857343;29;19939;-78
2022/08/31 03:37:27;;;;;;;;;;;18.10;94.70;;;;;;4848595;29;19985;-78
2022/08/31 03:39:54;;;;;;;;;;;18.10;96.30;;;;;;4865377;29;19924;-80
2022/08/31 03:42:20;;;;;;;;;;;18.20;96.20;;;;;;4858880;29;19932;-80
2022/08/31 03:44:47;;;;;;;;;;;18.20;96.20;;;;;;4857038;29;19955;-79
2022/08/31 03:47:15;;;;;;;;;;;18.20;95.20;;;;;;4853334;29;19908;-80
2022/08/31 03:49:43;;;;;;;;;;;18.20;94.30;;;;;;4847973;29;19924;-79
2022/08/31 03:52:09;;;;;;;;;;;18.30;94.10;;;;;;4852165;29;20012;-83
2022/08/31 03:54:36;;;;;;;;;;;18.20;93.20;;;;;;4868022;29;20394;-79
2022/08/31 03:57:03;;;;;;;;;;;18.20;92.90;;;;;;4845194;29;19997;-78
2022/08/31 03:59:30;;;;;;;;;;;18.20;92.60;;;;;;4842515;29;19971;-78
2022/08/31 04:01:57;;;;;;;;;;;18.10;92.60;;;;;;4845373;29;19916;-81
2022/08/31 04:04:24;;;;;;;;;;;18.10;92.60;;;;;;4863026;29;19971;-83
2022/08/31 04:06:50;;;;;;;;;;;18.00;92.60;;;;;;4852306;29;19933;-79
2022/08/31 04:09:17;;;;;;;;;;;18.00;92.70;;;;;;4863686;29;19928;-83
2022/08/31 04:11:44;;;;;;;;;;;18.00;93.10;;;;;;4849722;29;20355;-83
2022/08/31 04:14:11;;;;;;;;;;;17.80;93.70;;;;;;4864119;29;20977;-78
2022/08/31 04:16:42;;;;;;;;;;;17.80;93.60;;;;;;4869969;29;19932;-79
2022/08/31 04:19:10;;;;;;;;;;;17.80;93.70;;;;;;4856542;29;19931;-77
2022/08/31 04:21:37;;;;;;;;;;;17.80;94.00;;;;;;4850629;29;19924;-78
2022/08/31 04:24:05;;;;;;;;;;;17.80;93.50;;;;;;4859708;29;19908;-79
2022/08/31 04:26:33;;;;;;;;;;;17.90;93.20;;;;;;4860251;29;19977;-83
2022/08/31 04:29:02;;;;;;;;;;;17.90;92.70;;;;;;4859920;29;19932;-78
2022/08/31 04:31:29;;;;;;;;;;;17.90;92.20;;;;;;4864000;29;19925;-80
2022/08/31 04:33:56;;;;;;;;;;;17.80;92.10;;;;;;4853955;29;20365;-79
2022/08/31 04:36:24;;;;;;;;;;;17.90;92.70;;;;;;4848020;29;19976;-78
2022/08/31 04:38:51;;;;;;;;;;;17.90;92.50;;;;;;4843610;29;19932;-79
2022/08/31 04:41:20;;;;;;;;;;;17.80;92.30;;;;;;4859776;29;19932;-77
2022/08/31 04:43:49;;;;;;;;;;;17.80;92.40;;;;;;4844453;29;19960;-79
2022/08/31 04:46:16;;;;;;;;;;;17.80;92.50;;;;;;4861119;29;19929;-78
2022/08/31 04:48:43;;;;;;;;;;;17.80;92.50;;;;;;4860562;29;19935;-78
2022/08/31 04:51:11;;;;;;;;;;;17.70;92.60;;;;;;4841227;29;20333;-78
2022/08/31 04:53:39;;;;;;;;;;;17.70;92.60;;;;;;4854058;29;19948;-82
2022/08/31 04:56:13;;;;;;;;;;;17.70;92.50;;;;;;4868454;29;19928;-82
2022/08/31 04:58:40;;;;;;;;;;;17.70;92.30;;;;;;4872183;29;20381;-83
2022/08/31 05:01:08;;;;;;;;;;;17.70;92.00;;;;;;4853584;29;19928;-78
2022/08/31 05:03:39;;;;;;;;;;;17.70;91.80;;;;;;4857829;29;19953;-79
2022/08/31 05:06:10;;;;;;;;;;;17.70;91.50;;;;;;4865805;29;19930;-83
2022/08/31 05:08:39;;;;;;;;;;;17.70;91.40;;;;;;4858654;29;19924;-78
2022/08/31 05:11:09;;;;;;;;;;;17.70;91.40;;;;;;4856112;29;19956;-83
2022/08/31 05:13:36;;;;;;;;;;;17.70;91.10;;;;;;4857195;29;19928;-80
2022/08/31 05:16:04;;;;;;;;;;;17.70;90.80;;;;;;4856848;29;19924;-79
2022/08/31 05:18:31;;;;;;;;;;;17.80;90.70;;;;;;4858432;29;19939;-79
2022/08/31 05:21:07;;;;;;;;;;;17.80;90.50;;;;;;4855836;29;19976;-79
2022/08/31 05:23:34;;;;;;;;;;;17.90;90.30;;;;;;4863467;29;19924;-80
2022/08/31 05:26:00;;;;;;;;;;;17.90;89.80;;;;;;4858917;29;20182;-80
2022/08/31 05:28:27;;;;;;;;;;;17.90;87.90;;;;;;4875909;29;19952;-78
2022/08/31 05:30:56;;;;;;;;;;;17.90;88.90;;;;;;4870418;29;19908;-78
2022/08/31 05:33:23;;;;;;;;;;;17.90;88.10;;;;;;4843521;29;19944;-77
2022/08/31 05:35:50;;;;;;;;;;;18.00;88.80;;;;;;4855297;29;19924;-79
2022/08/31 05:38:17;;;;;;;;;;;18.00;88.10;;;;;;4854203;29;19981;-79
2022/08/31 05:40:50;;;;;;;;;;;18.00;88.20;;;;;;4846397;29;19959;-79
2022/08/31 05:43:17;;;;;;;;;;;18.00;88.40;;;;;;4860279;29;19924;-79
2022/08/31 05:45:44;;;;;;;;;;;18.10;88.70;;;;;;4847215;29;20400;-78
2022/08/31 05:48:11;;;;;;;;;;;18.00;89.00;;;;;;4859078;29;19924;-79
2022/08/31 05:50:38;;;;;;;;;;;18.10;87.70;;;;;;4843846;29;19931;-79
2022/08/31 05:53:05;;;;;;;;;;;18.10;87.40;;;;;;4851245;29;19976;-78
2022/08/31 05:55:32;;;;;;;;;;;18.10;87.80;;;;;;4842750;29;19953;-79
2022/08/31 05:58:00;;;;;;;;;;;18.10;88.20;;;;;;4864771;29;20017;-79
2022/08/31 06:00:27;;;;;;;;;;;18.10;89.60;;;;;;4852284;29;19924;-84
2022/08/31 06:02:54;;;;;;;;;;;18.10;88.30;;;;;;4856177;29;19931;-84
2022/08/31 06:05:21;;;;;;;;;;;18.10;88.70;;;;;;4860195;29;19955;-84
2022/08/31 06:07:48;;;;;;;;;;;18.10;87.60;;;;;;4861852;29;19928;-81
2022/08/31 06:10:15;;;;;;;;;;;18.20;86.90;;;;;;4862362;29;19931;-84
2022/08/31 06:12:42;;;;;;;;;;;18.20;86.70;;;;;;4851043;29;19928;-81
2022/08/31 06:15:09;;;;;;;;;;;18.30;87.70;;;;;;4836483;29;20445;-79
2022/08/31 06:17:39;;;;;;;;;;;18.30;87.10;;;;;;4863383;29;19976;-78
2022/08/31 06:20:06;;;;;;;;;;;18.40;88.00;;;;;;4868657;29;19932;-79
2022/08/31 06:22:33;;;;;;;;;;;18.50;87.00;;;;;;4859080;29;19924;-78
2022/08/31 06:25:00;;;;;;;;;;;18.50;87.10;;;;;;4865000;29;19950;-79
2022/08/31 06:27:28;;;;;;;;;;;18.60;86.30;;;;;;4846177;29;19931;-80
2022/08/31 06:29:56;;;;;;;;;;;18.60;84.20;;;;;;4858708;29;19924;-81
2022/08/31 06:32:25;;;;;;;;;;;18.70;84.10;;;;;;4857534;29;19925;-80
2022/08/31 06:34:51;;;;;;;;;;;18.70;81.90;;;;;;4862490;29;19976;-81
2022/08/31 06:37:18;;;;;;;;;;;18.80;80.00;;;;;;4866646;29;19928;-79
2022/08/31 06:39:50;;;;;;;;;;;18.80;80.40;;;;;;4866077;29;19924;-80
2022/08/31 06:42:17;;;;;;;0.20;0.20;;;18.90;79.40;;;;;;4861794;29;19947;-79
2022/08/31 06:44:44;;;;;;;0.20;0.20;;;19.00;78.30;;;;;;4874624;29;20049;-84
2022/08/31 06:47:11;;;;;;;0.20;0.20;;;19.10;79.90;;;;;;4848631;29;20559;-81
2022/08/31 06:49:38;;;;;;;0.20;0.20;;;19.10;81.90;;;;;;4853921;29;20061;-84
2022/08/31 06:52:05;;;;;;;0.20;0.20;;;19.20;86.60;;;;;;4853998;29;20080;-83
2022/08/31 06:54:31;;;;;;;0.20;0.20;;;19.30;86.20;;;;;;4871255;29;20070;-78
2022/08/31 06:56:58;;;;;;;0.20;0.20;;;19.40;85.90;;;;;;4849211;29;20098;-81
2022/08/31 06:59:26;;;;;;;0.20;0.20;;;19.40;83.90;;;;;;4852124;29;20065;-79
2022/08/31 07:01:57;;;;;;;0.20;0.20;;;19.60;81.60;;;;;;4843388;29;20687;-79
2022/08/31 07:04:24;;;;;;;0.10;0.10;;;19.70;80.80;;;;;;4849923;29;20880;-83
2022/08/31 07:06:50;;;;;;;;;;;19.80;80.70;;;;;;4853442;29;20061;-82
2022/08/31 07:09:17;;;;;;;;;;;20.00;79.00;;;;;;4855788;29;19912;-82
2022/08/31 07:11:48;;;;;;;0.20;0.20;;;20.10;77.20;;;;;;4850233;29;19955;-78
2022/08/31 07:14:20;;;;;;;0.20;0.20;;;20.20;75.10;;;;;;4867202;29;20065;-80
2022/08/31 07:16:48;;;;;;;0.17;0.17;;;20.30;73.60;;;;;;4846117;29;20061;-79
2022/08/31 07:19:16;;;;;;;0.20;0.20;;;20.50;73.30;;;;;;4846602;29;20073;-81
2022/08/31 07:21:49;;;;;;;0.20;0.20;;;20.50;73.00;;;;;;4844771;29;20129;-81
2022/08/31 07:24:21;;;;;;;0.10;0.10;;;20.60;75.00;;;;;;4863694;29;20066;-80
2022/08/31 07:27:03;;;;;;;0.20;0.20;;;20.80;72.90;;;;;;4860921;29;20423;-86
2022/08/31 07:29:39;;;;;;;0.20;0.20;;;21.00;71.50;;;;;;4857137;29;20141;-79
2022/08/31 07:32:13;;;;;;;0.10;0.10;;;21.10;72.00;;;;;;4864948;29;20476;-84
2022/08/31 07:34:42;;;;;;;0.20;0.20;;;21.40;72.00;;;;;;4846341;29;20093;-80
2022/08/31 07:42:43;;;;;;;0.10;0.10;;;22.00;71.70;;;;;;4845648;29;20530;-79
2022/08/31 07:45:20;;;;;;;0.20;0.20;;;22.20;71.80;;;;;;4845927;29;20123;-84
2022/08/31 07:47:53;;;;;;;0.10;0.10;;;22.40;73.90;;;;;;4846715;29;20118;-79
2022/08/31 07:50:22;;;;;;;0.20;0.20;;;22.50;72.70;;;;;;4852793;29;20070;-82
2022/08/31 07:52:53;;;;;;;0.10;0.10;;;22.70;75.70;;;;;;4859347;29;20057;-79
2022/08/31 07:55:23;;;;;;;0.10;0.10;;;23.00;73.00;;;;;;4856505;29;20057;-85
2022/08/31 07:57:52;;;;;;;0.10;0.10;;;23.10;72.90;;;;;;4844117;29;20066;-79
2022/08/31 08:00:23;;;;;;;0.10;0.10;;;23.20;73.10;;;;;;4860610;29;20057;-80
2022/08/31 08:02:51;;;;;;;0.10;0.10;;;23.40;73.50;;;;;;4849454;29;20098;-81
2022/08/31 08:05:25;;;;;;;0.10;0.10;;;23.60;72.80;;;;;;4859897;29;20411;-80
2022/08/31 08:07:57;;;;;;;0.10;0.10;;;23.70;72.00;;;;;;4843989;29;20049;-80
2022/08/31 08:10:28;;;;;;;0.10;0.10;;;23.80;71.70;;;;;;4842516;29;20484;-85
2022/08/31 08:13:02;;;;;;;0.10;0.10;;;23.80;72.30;;;;;;4845849;29;20424;-81
2022/08/31 08:15:32;;;;;;;0.10;0.10;;;24.00;72.90;;;;;;4859517;29;20117;-81
2022/08/31 08:18:03;;;;;;;0.10;0.10;;;24.10;71.70;;;;;;4862298;29;20176;-80
2022/08/31 08:20:30;;;;;;;0.15;0.15;;;24.20;71.40;;;;;;4853320;29;20053;-83
2022/08/31 08:23:10;;;;;;;0.10;0.10;;;24.40;70.70;;;;;;4859837;29;20069;-80
2022/08/31 08:25:43;;;;;;;0.10;0.10;;;24.60;69.60;;;;;;4850558;29;20060;-81
2022/08/31 08:28:19;;;;;;;0.10;0.10;;;24.80;68.70;;;;;;4852827;29;20125;-80
2022/08/31 08:31:11;;;;;;;0.10;0.10;;;24.90;69.00;;;;;;4859741;29;20145;-83
2022/08/31 08:33:38;;;;;;;0.10;0.10;;;24.90;66.80;;;;;;4855874;29;20456;-81
2022/08/31 08:36:06;;;;;;;0.10;0.10;;;25.00;70.40;;;;;;4858496;29;20506;-82
2022/08/31 08:38:37;;;;;;;0.10;0.10;;;25.20;67.40;;;;;;4860804;29;20045;-80
2022/08/31 08:41:11;;;;;;;0.10;0.10;;;25.20;67.40;;;;;;4846831;29;20061;-79
2022/08/31 08:43:42;;;;;;;0.10;0.10;;;25.20;68.50;;;;;;4860957;29;20064;-85
2022/08/31 08:46:13;;;;;;;0.10;0.10;;;25.20;68.40;;;;;;4845285;29;20080;-80
2022/08/31 08:49:08;;;;;;;0.10;0.10;;;24.80;67.50;;;;;;4859176;29;20089;-82
2022/08/31 08:51:37;;;;;;;0.10;0.10;;;24.80;68.80;;;;;;4852149;29;20402;-84
2022/08/31 08:54:11;;;;;;;0.10;0.10;;;25.00;68.30;;;;;;4858099;29;20107;-79
2022/08/31 08:56:45;;;;;;;0.10;0.10;;;25.20;68.70;;;;;;4848166;29;20106;-80
2022/08/31 08:59:13;;;;;;;0.10;0.10;;;25.40;67.50;;;;;;4857658;29;20423;-85
2022/08/31 09:01:47;;;;;;;0.10;0.10;;;25.50;65.80;;;;;;4856058;29;20054;-79
2022/08/31 09:04:42;;;;;;;0.10;0.10;;;25.50;66.30;;;;;;4852903;29;20105;-79
2022/08/31 09:07:33;;;;;;;0.10;0.10;;;25.50;65.80;;;;;;4841759;29;20053;-83
2022/08/31 09:10:21;;;;;;;0.10;0.10;;;25.50;66.50;;;;;;4858069;29;20528;-85
2022/08/31 09:13:08;;;;;;;0.10;0.10;;;25.60;66.00;;;;;;4856476;29;20056;-81
2022/08/31 09:15:44;;;;;;;0.10;0.10;;;25.70;65.20;;;;;;4858831;29;20527;-88
2022/08/31 09:18:20;;;;;;;0.10;0.10;;;25.60;65.80;;;;;;4843484;29;20064;-84
2022/08/31 09:21:06;;;;;;;0.10;0.10;;;25.60;64.70;;;;;;4858510;29;20452;-87
2022/08/31 09:23:41;;;;;;;0.10;0.10;;;25.70;64.30;;;;;;4863894;29;20065;-81
2022/08/31 09:26:15;;;;;;;0.10;0.10;;;25.80;63.40;;;;;;4864538;29;20061;-90
2022/08/31 09:28:46;;;;;;;0.00;0.00;;;25.90;64.20;;;;;;4844655;29;20061;-85
2022/08/31 09:31:37;;;;;;;0.10;0.10;;;26.00;63.30;;;;;;4859859;29;20107;-80
2022/08/31 09:34:30;;;;;;;0.10;0.10;;;26.00;61.00;;;;;;4846978;29;20053;-88
2022/08/31 09:37:10;;;;;;;0.10;0.10;;;26.00;61.20;;;;;;4841369;29;20065;-85
2022/08/31 09:39:37;;;;;;;0.10;0.10;;;25.90;62.00;;;;;;4857656;29;20061;-85
2022/08/31 09:42:30;;;;;;;0.10;0.10;;;25.60;62.10;;;;;;4846566;29;20069;-86
2022/08/31 09:45:10;;;;;;;0.10;0.10;;;25.50;65.20;;;;;;4860046;29;20166;-81
2022/08/31 09:47:51;;;;;;;0.10;0.10;;;25.70;63.60;;;;;;4858080;29;20525;-81
2022/08/31 09:50:34;;;;;;;0.10;0.10;;;26.00;61.80;;;;;;4856148;29;20502;-80
2022/08/31 09:56:22;;;;;;;0.10;0.10;;;26.10;60.30;;;;;;4859307;29;20061;-80
2022/08/31 09:59:00;;;;;;;0.10;0.10;;;25.80;62.50;;;;;;4859239;29;20118;-80
2022/08/31 10:01:34;;;;;;;0.10;0.10;;;25.80;62.90;;;;;;4856836;29;20057;-81
2022/08/31 10:04:25;;;;;;;0.10;0.10;;;25.90;63.30;;;;;;4860189;29;20057;-83
2022/08/31 10:07:12;;;;;;;0.10;0.10;;;25.70;62.60;;;;;;4859605;29;20061;-79
2022/08/31 10:09:53;;;;;;;0.10;0.10;;;25.70;63.30;;;;;;4857768;29;20054;-80
2022/08/31 10:12:42;;;;;;;0.10;0.10;;;25.60;64.20;;;;;;4855953;29;20100;-80
2022/08/31 10:15:35;;;;;;;0.10;0.10;;;25.70;63.70;;;;;;4846354;29;20110;-81
2022/08/31 10:18:14;;;;;;;0.10;0.10;;;25.80;63.90;;;;;;4838552;29;20081;-82
2022/08/31 10:20:48;;;;;;;0.10;0.10;;;25.80;63.40;;;;;;4857608;29;20097;-87
2022/08/31 10:23:53;;;;;;;0.10;0.10;;;26.00;64.20;;;;;;4854809;29;20057;-85
2022/08/31 10:26:35;;;;;;;0.10;0.10;;;26.00;62.50;;;;;;4857336;29;20090;-87
2022/08/31 10:29:12;;;;;;;0.10;0.10;;;26.00;62.50;;;;;;4841375;29;20061;-81
2022/08/31 10:31:52;;;;;;;0.10;0.10;;;25.90;64.40;;;;;;4842855;29;20116;-81
2022/08/31 10:37:22;;;;;;;0.10;0.10;;;26.40;63.30;;;;;;4861760;29;20087;-86
2022/08/31 10:39:56;;;;;;;0.10;0.10;;;26.50;64.30;;;;;;4857777;29;20519;-81
2022/08/31 10:42:28;;;;;;;0.10;0.10;;;27.00;64.10;;;;;;4861685;29;20057;-89
2022/08/31 10:45:03;;;;;;;0.10;0.10;;;27.30;62.20;;;;;;4862588;29;20089;-82
2022/08/31 10:47:40;;;;;;;0.10;0.10;;;27.20;62.30;;;;;;4868170;29;20282;-89
2022/08/31 10:50:12;;;;;;;0.10;0.10;;;26.90;61.20;;;;;;4858553;29;20049;-82
2022/08/31 10:52:42;;;;;;;0.10;0.10;;;27.00;62.80;;;;;;4865427;29;20082;-92
2022/08/31 10:55:27;;;;;;;0.10;0.10;;;27.30;60.80;;;;;;4860550;29;20123;-82
2022/08/31 10:58:42;;;;;;;0.10;0.10;;;27.40;60.10;;;;;;4850894;29;20060;-89
2022/08/31 11:01:19;;;;;;;0.10;0.10;;;27.50;61.60;;;;;;4859261;29;20061;-82
2022/08/31 11:03:58;;;;;;;0.10;0.10;;;27.00;60.20;;;;;;4862641;29;20494;-86
2022/08/31 11:06:43;;;;;;;0.10;0.10;;;27.10;61.10;;;;;;4864147;29;20095;-90
2022/08/31 11:09:20;;;;;;;0.10;0.10;;;26.90;61.20;;;;;;4860900;29;20066;-85
2022/08/31 11:12:05;;;;;;;0.10;0.10;;;27.10;62.10;;;;;;4849364;29;20132;-82
2022/08/31 11:14:36;;;;;;;0.10;0.10;;;27.30;62.00;;;;;;4848926;29;20066;-89
2022/08/31 11:17:11;;;;;;;0.10;0.10;;;27.30;60.90;;;;;;4861070;29;20058;-90
2022/08/31 11:19:57;;;;;;;0.10;0.10;;;27.10;60.40;;;;;;4851036;29;20480;-86
2022/08/31 11:22:36;;;;;;;0.10;0.10;;;27.00;62.00;;;;;;4861360;29;20061;-89
2022/08/31 11:25:13;;;;;;;0.10;0.10;;;27.40;63.00;;;;;;4859433;29;20052;-81
2022/08/31 11:27:52;;;;;;;0.00;0.00;;;27.80;60.30;;;;;;4864661;29;20061;-86
2022/08/31 11:30:27;;;;;;;0.10;0.10;;;27.40;59.90;;;;;;4867593;29;20057;-87
2022/08/31 11:32:59;;;;;;;0.10;0.10;;;27.00;61.50;;;;;;4854172;29;20065;-88
2022/08/31 11:35:46;;;;;;;0.10;0.10;;;27.00;60.60;;;;;;4852118;29;20430;-87
2022/08/31 11:38:53;;;;;;;;;;;27.50;58.50;;;;;;4852590;29;20131;-85
2022/08/31 11:41:35;;;;;;;0.10;0.10;;;27.80;58.10;;;;;;4797948;29;19925;-81
2022/08/31 11:44:03;;;;;;;0.10;0.10;;;28.20;56.60;;;;;;4792278;29;20051;-87
2022/08/31 11:46:35;;;;;;;0.08;0.08;;;28.10;58.30;;;;;;4832155;29;20060;-82
2022/08/31 11:49:02;;;;;;;0.10;0.10;;;28.30;57.30;;;;;;4857085;29;20049;-83
2022/08/31 11:51:39;;;;;;;0.00;0.00;;;28.40;57.00;;;;;;4843988;29;20053;-88
2022/08/31 11:54:35;;;;;;;0.00;0.00;;;28.70;56.60;;;;;;4858409;29;20081;-83
2022/08/31 11:57:04;;;;;;;0.00;0.00;;;28.90;56.00;;;;;;4858086;29;20118;-83
2022/08/31 11:59:37;;;;;;;0.00;0.00;;;29.00;54.20;;;;;;4863646;29;20563;-88
2022/08/31 12:02:18;;;;;;;0.08;0.08;;;28.30;56.10;;;;;;4845218;29;20058;-83
2022/08/31 12:04:51;;;;;;;0.00;0.00;;;28.60;55.50;;;;;;4862883;29;20056;-93
2022/08/31 12:07:34;;;;;;;0.00;0.00;;;28.50;55.60;;;;;;4861543;29;20061;-83
2022/08/31 12:10:30;;;;;;;0.10;0.10;;;28.80;54.40;;;;;;4856257;29;20519;-84
2022/08/31 12:13:04;;;;;;;0.00;0.00;;;28.90;53.90;;;;;;4853065;29;20165;-82
2022/08/31 12:15:44;;;;;;;0.00;0.00;;;29.10;54.00;;;;;;4862094;29;20065;-82
2022/08/31 12:18:32;;;;;;;0.00;0.00;;;29.10;52.30;;;;;;4860397;29;20171;-83
2022/08/31 12:24:37;;;;;;;0.00;0.00;;;29.60;53.60;;;;;;4861156;29;20053;-89
2022/08/31 12:27:42;;;;;;;0.00;0.00;;;29.80;51.80;;;;;;4858475;29;20053;-81
2022/08/31 12:30:23;;;;;;;0.00;0.00;;;28.90;53.20;;;;;;4863221;29;20396;-86
2022/08/31 12:33:03;;;;;;;0.00;0.00;;;29.00;53.90;;;;;;4853885;29;20077;-90
2022/08/31 12:35:32;;;;;;;0.08;0.08;;;29.10;51.80;;;;;;4854787;29;20065;-86
2022/08/31 12:38:08;;;;;;;0.00;0.00;;;29.00;52.90;;;;;;4845294;29;20061;-83
2022/08/31 12:40:56;;;;;;;0.00;0.00;;;29.50;52.00;;;;;;4848762;29;20057;-89
2022/08/31 12:43:27;;;;;;;0.00;0.00;;;29.90;50.90;;;;;;4843145;29;20137;-86
2022/08/31 12:46:28;;;;;;;0.00;0.00;;;30.10;49.90;;;;;;4859215;29;20092;-84
2022/08/31 12:49:32;;;;;;;0.05;0.05;;;30.20;49.50;;;;;;4858432;29;20132;-88
2022/08/31 12:52:10;;;;;;;0.00;0.00;;;30.30;50.10;;;;;;4855883;29;20113;-84
2022/08/31 12:55:01;;;;;;;0.10;0.10;;;29.50;50.70;;;;;;4856901;29;20077;-90
2022/08/31 12:57:47;;;;;;;0.10;0.10;;;29.40;52.20;;;;;;4856876;29;20057;-84
2022/08/31 13:00:24;;;;;;;0.00;0.00;;;29.60;51.30;;;;;;4858651;29;20058;-85
2022/08/31 13:02:58;;;;;;;0.00;0.00;;;29.70;51.20;;;;;;4858106;29;20081;-90
2022/08/31 13:05:32;;;;;;;0.08;0.08;;;29.70;50.10;;;;;;4859193;29;20057;-83
2022/08/31 13:08:00;;;;;;;0.00;0.00;;;29.90;49.70;;;;;;4842417;29;20126;-85
2022/08/31 13:10:33;;;;;;;0.00;0.00;;;30.10;49.10;;;;;;4858371;29;20473;-83
2022/08/31 13:13:07;;;;;;;0.00;0.00;;;30.20;49.60;;;;;;4858275;29;20578;-83
2022/08/31 13:15:41;;;;;;;0.00;0.00;;;30.40;47.50;;;;;;4858063;29;20061;-85
2022/08/31 13:18:14;;;;;;;0.00;0.00;;;29.50;49.70;;;;;;4858122;29;20069;-85
2022/08/31 13:20:42;;;;;;;0.00;0.00;;;29.50;50.80;;;;;;4861521;29;20065;-85
2022/08/31 13:23:22;;;;;;;0.00;0.00;;;29.60;49.90;;;;;;4851839;29;20528;-82
2022/08/31 13:26:01;;;;;;;0.00;0.00;;;29.60;50.20;;;;;;4860878;29;20057;-85
2022/08/31 13:28:29;;;;;;;1.35;0.00;;;29.70;50.40;;;;;;4846161;29;20506;-88
2022/08/31 13:31:05;;;;;;;0.10;0.10;;;29.50;49.50;;;;;;4854864;29;20054;-82
2022/08/31 13:33:38;;;;;;;0.00;0.00;;;28.90;50.20;;;;;;4859586;29;20061;-81
2022/08/31 13:36:08;;;;;;;0.00;0.00;;;28.90;51.50;;;;;;4856977;29;20065;-88
2022/08/31 13:38:50;;;;;;;0.10;0.10;;;28.90;51.90;;;;;;4841034;29;20088;-85
2022/08/31 13:41:27;;;;;;;0.00;0.00;;;29.00;52.70;;;;;;4855481;29;20430;-90
2022/08/31 13:44:00;;;;;;;0.00;0.00;;;28.80;51.50;;;;;;4858848;29;20306;-90
2022/08/31 13:46:36;;;;;;;0.00;0.00;;;29.10;52.90;;;;;;4859189;29;20499;-82
2022/08/31 13:49:35;;;;;;;0.10;0.10;;;29.40;51.20;;;;;;4843995;29;20552;-82
2022/08/31 13:52:14;;;;;;;0.00;0.00;;;29.10;50.10;;;;;;4849157;29;20061;-85
2022/08/31 13:54:41;;;;;;;0.10;0.10;;;29.20;51.10;;;;;;4855740;29;20145;-90
2022/08/31 13:57:21;;;;;;;0.03;0.03;;;29.10;50.90;;;;;;4857961;29;20053;-82
2022/08/31 13:59:48;;;;;;;;;;;29.10;51.10;;;;;;4864470;29;20058;-86
2022/08/31 14:02:15;;;;;;;0.00;0.00;;;28.90;51.20;;;;;;4855354;29;19959;-82
2022/08/31 14:05:04;;;;;;;0.08;0.08;;;28.70;52.00;;;;;;4857962;29;20133;-82
2022/08/31 14:07:38;;;;;;;0.00;0.00;;;28.70;52.90;;;;;;4854697;29;20566;-93